Time;durP1;ratioP1;P1;durP2;ratioP2;P2;SDS_P1;SDS_P2;PMS_P1;PMS_P2;Temp;Humidity;BMP_temperature;BMP_pressure;BME280_temperature;BME280_humidity;BME280_pressure;Samples;Min_cycle;Max_cycle;Signal;HPM_P1;HPM_P2
2021/06/03 00:04:13;;;;;;;17.53;8.27;;;;;;;15.14;55.86;101622.37;5145149;56;1143239;-75
2021/06/03 00:09:19;;;;;;;26.57;12.30;;;;;;;15.02;55.46;101624.67;5145290;56;1141314;-77
2021/06/03 00:14:25;;;;;;;19.77;8.67;;;;;;;14.80;55.96;101621.53;5144837;56;1143241;-77
2021/06/03 00:19:31;;;;;;;23.47;9.77;;;;;;;14.78;56.30;101627.45;5145672;56;1141255;-75
2021/06/03 00:24:37;;;;;;;15.30;8.23;;;;;;;14.75;56.49;101627.20;5145294;56;1141167;-77
2021/06/03 00:29:43;;;;;;;12.43;5.50;;;;;;;14.72;56.65;101627.91;5145373;56;1146755;-73
2021/06/03 00:34:49;;;;;;;27.90;8.23;;;;;;;14.61;57.02;101626.57;5145538;56;1140925;-74
2021/06/03 00:39:54;;;;;;;14.33;7.60;;;;;;;14.56;57.41;101636.72;5145461;56;1141049;-77
2021/06/03 00:45:00;;;;;;;18.43;9.97;;;;;;;14.55;57.97;101620.37;5145241;56;1140994;-75
2021/06/03 00:50:14;;;;;;;10.77;5.83;;;;;;;14.55;57.97;101620.37;5145399;56;1141032;-74
2021/06/03 00:55:23;;;;;;;18.07;6.40;;;;;;;14.51;57.41;101630.91;5145344;56;1140923;-76
2021/06/03 01:00:30;;;;;;;9.40;5.93;;;;;;;14.33;57.52;101628.66;5145087;56;1141034;-76
2021/06/03 01:05:51;;;;;;;11.27;6.23;;;;;;;14.31;57.81;101624.41;5145379;56;1138500;-75
2021/06/03 01:11:23;;;;;;;13.33;8.03;;;;;;;14.22;57.88;101619.75;5145182;56;1140671;-73
2021/06/03 01:16:32;;;;;;;13.33;6.97;;;;;;;14.15;58.03;101609.23;5145216;56;1140626;-75
2021/06/03 01:21:58;;;;;;;10.08;6.58;;;;;;;14.10;58.25;101610.89;5145342;56;1140580;-75
2021/06/03 01:27:19;;;;;;;10.48;6.92;;;;;;;14.09;58.45;101615.36;5143949;56;1141113;-76
2021/06/03 01:32:30;;;;;;;11.17;5.83;;;;;;;13.98;58.39;101613.14;5150281;56;1140521;-76
2021/06/03 01:37:38;;;;;;;11.47;6.57;;;;;;;13.93;58.77;101619.27;5145313;56;1141375;-74
2021/06/03 01:42:46;;;;;;;8.18;5.90;;;;;;;13.83;58.86;101617.79;5145529;56;1141226;-77
2021/06/03 01:47:54;;;;;;;13.80;7.13;;;;;;;13.68;58.88;101631.73;5145169;56;1138837;-75
2021/06/03 01:53:02;;;;;;;15.30;8.23;;;;;;;13.42;59.01;101626.13;5144945;56;1140511;-76
2021/06/03 01:58:10;;;;;;;13.65;7.08;;;;;;;13.42;59.76;101641.23;5145038;56;1140898;-74
2021/06/03 02:03:18;;;;;;;16.47;6.33;;;;;;;13.47;59.81;101641.72;5144849;56;1140443;-76
2021/06/03 02:08:25;;;;;;;14.87;7.80;;;;;;;13.54;59.92;101631.03;5119064;56;1140438;-75
2021/06/03 02:13:49;;;;;;;17.10;6.47;;;;;;;13.57;60.03;101634.80;5144561;56;1140887;-73
2021/06/03 02:19:09;;;;;;;18.10;7.37;;;;;;;13.61;59.94;101633.59;5115943;56;1141238;-75
2021/06/03 02:24:17;;;;;;;9.80;6.47;;;;;;;13.62;60.04;101630.83;5143028;56;1140642;-74
2021/06/03 02:29:26;;;;;;;10.23;6.27;;;;;;;13.58;59.71;101640.49;5145196;56;1138750;-76
2021/06/03 02:34:36;;;;;;;9.17;5.90;;;;;;;13.38;59.57;101646.75;5144904;56;1141055;-74
2021/06/03 02:39:46;;;;;;;16.20;7.63;;;;;;;13.30;59.97;101642.45;5145533;56;1138656;-74
2021/06/03 02:44:52;;;;;;;16.63;6.43;;;;;;;13.25;60.35;101647.26;5141670;56;1140883;-74
2021/06/03 02:49:58;;;;;;;52.53;9.80;;;;;;;13.19;60.34;101649.48;5145118;56;1141275;-75
2021/06/03 02:55:11;;;;;;;33.37;10.57;;;;;;;13.01;60.29;101646.27;5144800;56;1140706;-74
2021/06/03 03:00:22;;;;;;;28.62;9.88;;;;;;;12.85;60.64;101651.80;5144790;56;1143126;-74
2021/06/03 03:05:30;;;;;;;35.28;10.75;;;;;;;12.84;61.24;101648.77;5144851;56;1141186;-77
2021/06/03 03:10:46;;;;;;;17.07;7.60;;;;;;;12.89;61.28;101655.09;5124729;56;1143275;-75
2021/06/03 03:15:53;;;;;;;23.00;6.87;;;;;;;12.95;61.32;101663.50;5144879;56;1141019;-77
2021/06/03 03:21:01;;;;;;;21.27;7.83;;;;;;;12.95;61.42;101660.00;5075164;56;1141106;-76
2021/06/03 03:26:07;;;;;;;18.23;7.97;;;;;;;12.89;61.54;101659.94;5145840;56;1140987;-77
2021/06/03 03:31:14;;;;;;;16.17;6.57;;;;;;;12.96;61.88;101672.32;5146078;56;1140980;-77
2021/06/03 03:36:21;;;;;;;19.57;7.70;;;;;;;12.79;61.33;101669.97;5145969;56;1140924;-77
2021/06/03 03:41:28;;;;;;;10.97;7.53;;;;;;;12.42;61.48;101673.78;5146105;56;1141275;-75
2021/06/03 03:46:36;;;;;;;12.93;7.15;;;;;;;12.12;61.99;101678.46;5155165;56;1150107;-76
2021/06/03 03:51:42;;;;;;;17.20;8.23;;;;;;;12.01;62.84;101683.63;5146084;56;1141473;-74
2021/06/03 03:56:49;;;;;;;13.48;7.50;;;;;;;12.16;63.41;101682.62;5146013;56;1141526;-78
2021/06/03 04:01:55;;;;;;;15.10;7.43;;;;;;;12.34;63.49;101690.70;5145885;56;1141383;-78
2021/06/03 04:07:02;;;;;;;11.47;6.97;;;;;;;12.21;63.22;101695.97;5145891;56;1141419;-77
2021/06/03 04:12:10;;;;;;;12.47;7.10;;;;;;;12.07;63.67;101692.52;5145925;56;1140976;-75
2021/06/03 04:17:18;;;;;;;14.77;8.10;;;;;;;11.92;64.13;101694.33;5146130;56;1141134;-75
2021/06/03 04:22:27;;;;;;;16.40;7.57;;;;;;;11.85;64.71;101695.69;5145996;56;1141120;-73
2021/06/03 04:27:34;;;;;;;13.93;7.92;;;;;;;11.85;65.16;101691.72;5145392;56;1141026;-78
2021/06/03 04:32:40;;;;;;;13.55;7.65;;;;;;;12.06;65.99;101690.34;5144895;56;1141303;-74
2021/06/03 04:37:50;;;;;;;15.15;7.47;;;;;;;12.36;66.54;101694.11;5145444;56;1141011;-77
2021/06/03 04:42:58;;;;;;;13.67;7.83;;;;;;;12.54;66.26;101688.88;5145243;56;1140813;-74
2021/06/03 04:48:06;;;;;;;20.37;8.93;;;;;;;12.70;66.44;101703.28;5145228;56;1141081;-75
2021/06/03 04:53:13;;;;;;;9.40;6.77;;;;;;;12.85;66.73;101708.88;5145120;56;1141155;-75
2021/06/03 04:58:19;;;;;;;9.97;6.27;;;;;;;13.01;66.38;101713.52;5145250;56;1138586;-74
2021/06/03 05:03:25;;;;;;;13.83;6.97;;;;;;;13.18;66.19;101719.50;5145758;56;1138667;-73
2021/06/03 05:08:31;;;;;;;10.93;8.13;;;;;;;13.37;66.31;101720.78;5145206;56;1140490;-77
2021/06/03 05:13:36;;;;;;;11.57;7.40;;;;;;;13.56;66.02;101726.98;5125177;56;1141001;-77
2021/06/03 05:18:43;;;;;;;9.95;6.15;;;;;;;13.70;65.82;101726.00;5145327;56;1140769;-74
2021/06/03 05:23:48;;;;;;;15.28;9.35;;;;;;;13.74;65.50;101730.15;5145424;56;1138480;-75
2021/06/03 05:28:55;;;;;;;15.03;7.17;;;;;;;13.76;65.26;101735.33;5137811;56;1140567;-74
2021/06/03 05:34:01;;;;;;;17.97;7.90;;;;;;;13.80;64.98;101736.81;5135153;57;1140495;-77
2021/06/03 05:39:09;;;;;;;9.63;7.23;;;;;;;13.97;65.25;101728.00;5134929;57;1140693;-74
2021/06/03 05:44:17;;;;;;;15.83;7.90;;;;;;;14.27;64.93;101734.70;5135173;56;1138893;-77
2021/06/03 05:49:23;;;;;;;10.10;8.10;;;;;;;14.54;63.31;101729.16;5134774;56;1140458;-74
2021/06/03 05:54:31;;;;;;;13.57;7.73;;;;;;;14.77;64.01;101731.80;5133992;56;1140573;-76
2021/06/03 05:59:38;;;;;;;10.10;7.43;;;;;;;14.99;63.22;101733.66;5135346;56;1140491;-76
2021/06/03 06:10:09;;;;;;;10.13;7.23;;;;;;;15.33;62.36;101734.56;5134272;56;1140599;-77
2021/06/03 06:15:16;;;;;;;11.23;6.90;;;;;;;15.56;61.84;101741.28;5134653;56;1140915;-75
2021/06/03 06:20:22;;;;;;;10.73;7.60;;;;;;;15.67;61.78;101740.79;5134324;56;1140651;-75
2021/06/03 06:25:29;;;;;;;13.27;7.73;;;;;;;15.75;61.58;101751.68;5134105;57;1140616;-76
2021/06/03 06:30:35;;;;;;;12.87;7.23;;;;;;;15.91;61.53;101753.13;5134064;56;1140691;-75
2021/06/03 06:35:42;;;;;;;10.00;6.03;;;;;;;16.11;61.91;101757.22;5134016;56;1141191;-74
2021/06/03 06:40:51;;;;;;;10.10;6.60;;;;;;;16.30;61.08;101761.06;5132976;56;1140732;-74
2021/06/03 06:45:58;;;;;;;11.13;6.23;;;;;;;16.51;61.50;101761.46;5141950;56;1140818;-71
2021/06/03 06:51:05;;;;;;;8.83;6.23;;;;;;;16.72;59.98;101753.53;5133620;56;1141307;-75
2021/06/03 06:56:12;;;;;;;9.87;5.87;;;;;;;16.96;60.77;101762.63;5133799;57;1139433;-74
2021/06/03 07:01:19;;;;;;;7.86;5.64;;;;;;;17.27;58.95;101770.70;5133929;56;1139195;-75
2021/06/03 07:06:25;;;;;;;9.53;5.67;;;;;;;17.57;59.92;101762.20;5133446;56;1138923;-75
2021/06/03 07:11:30;;;;;;;6.63;5.23;;;;;;;17.87;57.17;101760.03;5134185;56;1138939;-76
2021/06/03 07:16:36;;;;;;;7.60;4.83;;;;;;;18.15;56.67;101762.45;5133459;56;1138911;-74
2021/06/03 07:21:42;;;;;;;11.44;5.22;;;;;;;18.39;54.50;101754.52;5134023;56;1139097;-76
2021/06/03 07:26:49;;;;;;;14.13;6.03;;;;;;;18.59;54.45;101757.59;5134615;56;1141069;-74
2021/06/03 07:31:55;;;;;;;8.05;4.60;;;;;;;18.83;52.67;101754.47;5141229;56;1141032;-74
2021/06/03 07:37:01;;;;;;;6.50;4.43;;;;;;;19.12;54.37;101757.11;5144174;56;1139133;-74
2021/06/03 07:42:09;;;;;;;12.97;6.50;;;;;;;19.40;53.68;101759.39;5144468;56;1139138;-74
2021/06/03 07:47:17;;;;;;;4.20;3.63;;;;;;;19.63;53.56;101760.24;5144578;56;1141456;-76
2021/06/03 07:52:23;;;;;;;7.50;4.00;;;;;;;19.87;51.00;101760.19;5144682;56;1139305;-76
2021/06/03 07:57:29;;;;;;;9.97;5.27;;;;;;;19.94;50.46;101759.46;5144285;56;1139143;-76
2021/06/03 08:02:35;;;;;;;9.30;4.80;;;;;;;20.07;49.82;101770.34;5144538;56;1138967;-75
2021/06/03 08:07:42;;;;;;;8.23;4.40;;;;;;;20.16;49.22;101760.05;5144382;56;1138923;-77
2021/06/03 08:12:49;;;;;;;4.28;3.40;;;;;;;20.35;48.63;101763.44;5145046;56;1138760;-76
2021/06/03 08:17:56;;;;;;;6.17;4.17;;;;;;;20.58;48.49;101761.69;5145507;56;1139023;-74
2021/06/03 08:23:04;;;;;;;4.65;3.62;;;;;;;20.75;46.04;101767.56;5145068;56;1138781;-74
2021/06/03 08:28:10;;;;;;;3.45;3.02;;;;;;;20.91;47.21;101771.73;5145071;56;1138746;-77
2021/06/03 08:33:16;;;;;;;6.67;3.00;;;;;;;21.06;46.39;101778.73;5138844;56;1138514;-77
2021/06/03 08:38:22;;;;;;;7.97;2.90;;;;;;;21.13;44.78;101769.52;5134757;56;1138520;-75
2021/06/03 08:43:32;;;;;;;4.37;1.50;;;;;;;21.24;41.04;101772.83;5135248;56;1138501;-77
2021/06/03 08:48:38;;;;;;;7.53;2.02;;;;;;;21.28;38.87;101770.17;5134950;57;1139110;-76
2021/06/03 08:53:44;;;;;;;4.26;2.28;;;;;;;21.12;37.02;101768.67;5119781;56;1138531;-74
2021/06/03 08:58:57;;;;;;;2.55;2.10;;;;;;;20.97;35.95;101767.55;5109978;56;1138370;-75
2021/06/03 09:04:03;;;;;;;5.28;1.85;;;;;;;21.00;39.78;101773.48;5109901;56;1138322;-76
2021/06/03 09:09:12;;;;;;;10.93;2.12;;;;;;;21.19;36.06;101764.88;5109755;56;1138526;-73
2021/06/03 09:14:18;;;;;;;6.62;2.15;;;;;;;21.40;37.33;101767.55;5109731;56;1140585;-75
2021/06/03 09:19:25;;;;;;;3.75;2.12;;;;;;;21.66;37.65;101772.93;5109717;56;1138899;-75
2021/06/03 09:24:34;;;;;;;3.62;3.05;;;;;;;21.94;37.57;101768.16;5109577;56;1138826;-74
2021/06/03 09:29:40;;;;;;;4.10;2.30;;;;;;;22.12;39.75;101773.48;5153445;57;1138451;-76
2021/06/03 09:34:50;;;;;;;5.90;2.25;;;;;;;22.28;36.65;101776.23;5140573;56;1138444;-75
2021/06/03 09:39:56;;;;;;;6.67;2.67;;;;;;;22.43;37.01;101765.64;5144531;56;1139044;-75
2021/06/03 09:45:09;;;;;;;2.85;2.10;;;;;;;22.58;37.79;101763.98;5144511;56;1138435;-78
2021/06/03 09:50:19;;;;;;;5.70;2.22;;;;;;;22.65;36.84;101739.36;5144669;56;1138729;-76
2021/06/03 09:55:26;;;;;;;2.72;2.35;;;;;;;22.74;36.63;101754.55;5144267;56;1138646;-73
2021/06/03 10:00:34;;;;;;;2.22;1.80;;;;;;;22.87;36.55;101762.67;5144772;56;1138750;-74
2021/06/03 10:05:39;;;;;;;3.65;1.80;;;;;;;22.83;37.23;101743.78;5117839;56;1138572;-75
2021/06/03 10:10:47;;;;;;;3.52;1.55;;;;;;;23.06;38.76;101745.63;5144821;56;1138828;-74
2021/06/03 10:15:52;;;;;;;5.90;2.10;;;;;;;23.21;36.40;101737.68;5144720;56;1138770;-76
2021/06/03 10:21:00;;;;;;;2.62;2.20;;;;;;;23.34;34.60;101731.23;5144879;56;1139186;-74
2021/06/03 10:26:07;;;;;;;4.33;2.30;;;;;;;23.55;37.52;101732.02;5112421;56;1138972;-77
2021/06/03 10:31:14;;;;;;;4.47;2.22;;;;;;;23.68;34.43;101733.66;5063443;56;1139145;-74
2021/06/03 10:36:20;;;;;;;5.53;2.37;;;;;;;23.73;31.76;101727.73;5060107;57;1139160;-73
2021/06/03 10:41:26;;;;;;;2.67;2.08;;;;;;;23.68;31.59;101735.01;5060386;57;1138947;-75
2021/06/03 10:46:32;;;;;;;1.95;1.77;;;;;;;23.68;32.17;101739.59;5060345;57;1138855;-75
2021/06/03 10:51:41;;;;;;;3.50;1.72;;;;;;;23.74;30.63;101732.97;5060528;57;1138913;-76
2021/06/03 10:56:59;;;;;;;9.10;2.20;;;;;;;23.85;32.63;101730.38;5060294;57;1138808;-75
2021/06/03 11:02:08;;;;;;;2.12;1.90;;;;;;;24.07;33.89;101728.25;5060591;57;1138967;-74
2021/06/03 11:07:15;;;;;;;1.92;1.80;;;;;;;24.24;33.90;101718.72;5060203;57;1139096;-74
2021/06/03 11:12:24;;;;;;;8.00;1.90;;;;;;;24.38;33.68;101726.89;5060155;57;1138934;-76
2021/06/03 11:18:01;;;;;;;8.15;2.00;;;;;;;24.48;30.56;101718.53;5060197;57;1139021;-74
2021/06/03 11:23:44;;;;;;;4.72;1.90;;;;;;;24.37;30.63;101718.95;5060339;57;1138365;-75
2021/06/03 11:29:14;;;;;;;4.27;1.80;;;;;;;24.31;29.55;101729.97;5061119;57;1138494;-76
2021/06/03 11:34:25;;;;;;;12.45;2.35;;;;;;;24.30;29.37;101716.62;4972810;58;1138488;-78
2021/06/03 11:39:54;;;;;;;2.33;2.10;;;;;;;24.30;32.40;101709.87;4973238;58;1140823;-74
2021/06/03 11:45:20;;;;;;;10.30;1.80;;;;;;;24.23;30.89;101706.19;4973104;58;1138731;-77
2021/06/03 11:50:33;;;;;;;22.85;3.72;;;;;;;24.24;32.08;101694.39;4973501;58;1141165;-79
2021/06/03 11:55:49;;;;;;;13.65;3.40;;;;;;;24.35;29.78;101702.91;4973449;58;1140984;-77
2021/06/03 12:01:18;;;;;;;10.30;2.00;;;;;;;24.34;30.28;101697.17;4973696;58;1141062;-80
2021/06/03 12:06:34;;;;;;;1.57;1.47;;;;;;;24.44;30.79;101698.30;4971820;58;1141052;-77
2021/06/03 12:11:47;;;;;;;1.62;1.30;;;;;;;24.56;30.08;101686.53;5025751;57;1138955;-76
2021/06/03 12:17:00;;;;;;;2.62;1.50;;;;;;;24.56;29.27;101677.06;5061624;57;1139336;-80
2021/06/03 12:22:11;;;;;;;6.83;2.00;;;;;;;24.54;28.21;101675.89;5061589;57;1139415;-76
2021/06/03 12:27:28;;;;;;;3.80;2.50;;;;;;;24.59;29.01;101668.59;5061059;57;1138962;-77
2021/06/03 12:32:35;;;;;;;3.62;1.85;;;;;;;24.65;31.00;101657.02;5061601;57;1138911;-79
2021/06/03 12:37:41;;;;;;;3.72;1.98;;;;;;;24.84;30.15;101660.56;5055698;57;1138924;-75
2021/06/03 12:42:47;;;;;;;3.95;1.70;;;;;;;24.76;27.82;101656.05;5031808;56;1138959;-77
2021/06/03 12:47:53;;;;;;;4.53;2.07;;;;;;;24.82;29.99;101651.27;5032136;56;1138943;-75
2021/06/03 12:52:59;;;;;;;3.75;2.17;;;;;;;24.87;28.65;101654.78;5031953;58;1139022;-78
2021/06/03 12:58:13;;;;;;;8.03;4.28;;;;;;;24.98;28.64;101648.94;5017911;57;1138602;-79
2021/06/03 13:03:25;;;;;;;2.17;1.82;;;;;;;25.13;29.71;101639.47;5031864;56;1139045;-78
2021/06/03 13:09:02;;;;;;;2.35;1.75;;;;;;;25.30;30.24;101638.76;5032147;56;1139181;-78
2021/06/03 13:14:21;;;;;;;13.32;2.33;;;;;;;25.41;30.18;101636.41;5032079;56;1139100;-79
2021/06/03 13:19:28;;;;;;;4.42;1.60;;;;;;;25.41;28.91;101635.05;5008109;57;1140772;-77
2021/06/03 13:24:47;;;;;;;2.40;2.20;;;;;;;25.36;29.49;101632.06;4999693;57;1138303;-79
2021/06/03 13:30:17;;;;;;;8.13;2.33;;;;;;;25.26;29.50;101629.33;4999572;57;1138423;-79
2021/06/03 13:35:25;;;;;;;3.52;1.82;;;;;;;25.19;29.10;101630.61;4999101;57;1138688;-79
2021/06/03 13:40:32;;;;;;;2.45;1.98;;;;;;;25.26;29.27;101619.84;5058357;56;1138377;-79
2021/06/03 13:45:48;;;;;;;3.42;1.90;;;;;;;25.32;29.79;101627.23;5135119;56;1138396;-79
2021/06/03 13:50:57;;;;;;;2.87;1.67;;;;;;;25.31;28.67;101616.91;5135150;56;1138512;-78
2021/06/03 13:56:16;;;;;;;2.60;1.60;;;;;;;25.21;28.34;101613.12;5134806;56;1138670;-80
2021/06/03 14:01:41;;;;;;;2.02;1.85;;;;;;;25.33;29.36;101613.50;5135275;56;1138822;-76
2021/06/03 14:06:57;;;;;;;6.47;2.00;;;;;;;25.38;28.81;101614.27;5135408;56;1138764;-76
2021/06/03 14:17:28;;;;;;;1.65;1.55;;;;;;;25.47;29.45;101608.57;5135322;56;1139412;-78
2021/06/03 14:22:37;;;;;;;6.03;2.08;;;;;;;25.65;29.10;101606.00;5135466;56;1139372;-78
2021/06/03 14:27:49;;;;;;;5.15;2.45;;;;;;;25.68;28.80;101600.17;5135469;56;1139067;-77
2021/06/03 14:32:58;;;;;;;4.28;3.50;;;;;;;25.75;27.82;101595.67;5135513;57;1139137;-79
2021/06/03 14:38:11;;;;;;;4.37;1.75;;;;;;;25.69;27.65;101596.42;5135545;57;1138958;-81
2021/06/03 14:43:28;;;;;;;2.55;1.80;;;;;;;25.63;27.85;101601.28;5142001;56;1139059;-83
2021/06/03 14:48:42;;;;;;;5.25;1.87;;;;;;;25.45;27.27;101601.14;5145422;56;1139008;-79
2021/06/03 14:53:43;;;;;;;2.27;1.98;;;;;;;25.45;27.94;101589.47;5148219;56;1139022;-84
2021/06/03 14:58:49;;;;;;;4.22;1.70;;;;;;;25.54;27.33;101594.58;5145305;56;1138878;-78
2021/06/03 15:03:55;;;;;;;7.83;2.15;;;;;;;25.57;27.45;101592.00;5145456;56;1139076;-81
2021/06/03 15:09:01;;;;;;;2.60;1.83;;;;;;;25.54;27.45;101582.38;5145270;56;1138948;-78
2021/06/03 15:14:06;;;;;;;6.33;1.80;;;;;;;25.63;28.56;101570.96;5144385;56;1139133;-82
2021/06/03 15:19:12;;;;;;;6.97;2.33;;;;;;;25.66;27.87;101566.52;5144494;56;1139129;-78
2021/06/03 15:24:20;;;;;;;3.50;2.50;;;;;;;25.71;28.98;101574.05;5144531;56;1139150;-81
2021/06/03 15:29:26;;;;;;;2.33;2.17;;;;;;;25.81;28.64;101567.81;5144904;56;1138966;-79
2021/06/03 15:34:32;;;;;;;1.87;1.77;;;;;;;25.91;27.76;101562.38;5144775;56;1138925;-81
2021/06/03 15:39:39;;;;;;;3.83;1.98;;;;;;;25.95;28.52;101562.84;5145370;56;1139085;-76
2021/06/03 15:44:44;;;;;;;9.30;2.00;;;;;;;25.86;25.63;101555.86;5144785;56;1139220;-80
2021/06/03 15:49:50;;;;;;;5.00;1.70;;;;;;;25.64;25.79;101549.61;5145018;56;1138917;-80
2021/06/03 15:54:56;;;;;;;5.70;1.98;;;;;;;25.56;26.92;101552.39;5144743;56;1138899;-74
2021/06/03 16:00:06;;;;;;;3.53;2.03;;;;;;;25.57;27.61;101545.43;5118185;56;1139046;-80
2021/06/03 16:05:15;;;;;;;1.60;1.45;;;;;;;25.62;28.08;101550.83;5144241;56;1138892;-82
2021/06/03 16:10:23;;;;;;;6.47;2.02;;;;;;;25.67;27.34;101545.13;5144395;56;1138636;-78
2021/06/03 16:15:31;;;;;;;5.33;2.33;;;;;;;25.73;28.17;101544.38;5144314;56;1138651;-80
2021/06/03 16:20:38;;;;;;;3.50;2.10;;;;;;;25.58;27.39;101543.05;5144617;56;1138541;-80
2021/06/03 16:25:45;;;;;;;6.85;2.10;;;;;;;25.36;27.38;101548.09;5144227;56;1138709;-75
2021/06/03 16:30:51;;;;;;;3.62;2.00;;;;;;;25.17;27.78;101544.16;5145182;56;1138416;-79
2021/06/03 16:35:59;;;;;;;3.33;1.63;;;;;;;25.18;28.30;101547.19;5145589;56;1138901;-84
2021/06/03 16:41:10;;;;;;;8.33;2.47;;;;;;;25.19;28.26;101548.02;5145337;56;1138542;-79
2021/06/03 16:46:15;;;;;;;4.50;2.05;;;;;;;25.21;28.68;101543.23;5140831;56;1138419;-82
2021/06/03 16:51:22;;;;;;;11.00;2.83;;;;;;;25.21;29.45;101545.42;5142573;56;1138698;-74
2021/06/03 16:56:31;;;;;;;8.00;3.30;;;;;;;25.20;28.34;101545.13;5139925;56;1140982;-75
2021/06/03 17:01:36;;;;;;;2.35;1.70;;;;;;;25.16;28.92;101551.11;5140085;56;1138639;-75
2021/06/03 17:06:42;;;;;;;13.62;2.83;;;;;;;25.01;28.27;101552.99;5140356;56;1138552;-74
2021/06/03 17:11:49;;;;;;;4.94;2.52;;;;;;;24.89;29.29;101546.68;5159687;56;1140575;-75
2021/06/03 17:16:55;;;;;;;6.92;2.85;;;;;;;24.81;28.90;101544.56;4911269;58;1138561;-77
2021/06/03 17:22:00;;;;;;;7.10;2.85;;;;;;;24.75;29.80;101546.69;5141183;56;1138603;-76
2021/06/03 17:27:06;;;;;;;10.13;2.90;;;;;;;24.66;30.39;101559.45;5140062;56;1139167;-74
2021/06/03 17:32:13;;;;;;;7.80;2.90;;;;;;;24.64;30.88;101562.00;5143283;56;1140702;-73
2021/06/03 17:37:18;;;;;;;4.28;1.55;;;;;;;24.54;31.32;101565.83;5144537;56;1138631;-75
2021/06/03 17:42:24;;;;;;;4.25;2.70;;;;;;;24.34;32.38;101571.95;5082452;56;1138511;-77
2021/06/03 17:47:30;;;;;;;6.67;2.92;;;;;;;24.27;32.33;101575.07;5144543;56;1138708;-77
2021/06/03 17:52:37;;;;;;;9.83;2.47;;;;;;;24.25;32.04;101572.55;5143244;56;1138715;-76
2021/06/03 17:57:44;;;;;;;7.65;3.90;;;;;;;24.19;33.15;101565.96;5141325;56;1138673;-74
2021/06/03 18:02:51;;;;;;;13.13;4.50;;;;;;;24.09;33.34;101568.59;5141279;56;1138623;-76
2021/06/03 18:07:59;;;;;;;6.15;4.03;;;;;;;24.02;33.22;101561.71;5140918;56;1140850;-76
2021/06/03 18:13:07;;;;;;;16.63;5.20;;;;;;;23.97;33.84;101564.14;5141381;56;1138637;-77
2021/06/03 18:18:15;;;;;;;16.93;5.12;;;;;;;23.88;34.44;101564.36;5140606;56;1140990;-76
2021/06/03 18:23:22;;;;;;;14.70;5.22;;;;;;;23.78;34.70;101564.61;5140702;56;1140545;-75
2021/06/03 18:28:27;;;;;;;13.15;3.58;;;;;;;23.66;35.26;101566.90;5141178;56;1140651;-75
2021/06/03 18:33:35;;;;;;;8.85;2.20;;;;;;;23.53;35.51;101575.26;5141288;56;1140591;-75
2021/06/03 18:38:41;;;;;;;8.50;2.05;;;;;;;23.35;36.22;101576.33;5141394;56;1138635;-74
2021/06/03 18:43:49;;;;;;;8.75;2.20;;;;;;;23.19;36.54;101569.66;5141483;56;1138662;-74
2021/06/03 18:48:56;;;;;;;7.07;1.97;;;;;;;23.18;36.93;101574.72;5142058;56;1138975;-77
2021/06/03 18:54:02;;;;;;;5.35;2.45;;;;;;;23.10;37.32;101575.58;5141783;56;1138888;-77
2021/06/03 18:59:08;;;;;;;6.70;2.63;;;;;;;22.97;37.57;101576.65;5144105;56;1138990;-76
2021/06/03 19:04:17;;;;;;;8.18;2.62;;;;;;;22.91;37.92;101578.72;5142239;56;1139261;-74
2021/06/03 19:09:22;;;;;;;4.22;2.50;;;;;;;22.69;38.14;101584.29;5129425;56;1139129;-75
2021/06/03 19:14:30;;;;;;;5.40;3.08;;;;;;;22.49;38.73;101585.67;5141173;56;1139177;-77
2021/06/03 19:19:37;;;;;;;16.65;3.12;;;;;;;22.42;39.22;101587.38;5140744;56;1138933;-73
2021/06/03 19:24:43;;;;;;;27.60;3.83;;;;;;;22.39;39.67;101583.67;5140566;56;1141122;-77
2021/06/03 19:29:49;;;;;;;26.20;4.12;;;;;;;22.32;40.00;101592.08;5139961;56;1140975;-76
2021/06/03 19:34:55;;;;;;;16.48;3.33;;;;;;;22.25;40.34;101596.48;5086248;56;1140985;-76
2021/06/03 19:40:01;;;;;;;8.48;2.75;;;;;;;22.13;40.59;101596.48;5088507;56;1141178;-76
2021/06/03 19:45:09;;;;;;;3.95;3.05;;;;;;;21.97;40.73;101598.12;5089518;56;1138989;-76
2021/06/03 19:50:20;;;;;;;17.12;3.60;;;;;;;21.86;41.39;101595.73;5087944;56;1138987;-76
2021/06/03 19:55:28;;;;;;;4.62;2.37;;;;;;;21.73;41.84;101593.53;5087614;56;1140983;-76
2021/06/03 20:00:47;;;;;;;13.93;5.37;;;;;;;21.61;42.30;101590.82;5085569;56;1139142;-75
2021/06/03 20:05:54;;;;;;;18.60;7.70;;;;;;;21.42;42.72;101592.44;5086959;56;1141273;-75
2021/06/03 20:11:01;;;;;;;25.87;9.33;;;;;;;21.23;43.22;101598.96;5087433;56;1141077;-73
2021/06/03 20:16:07;;;;;;;26.27;12.90;;;;;;;21.04;43.71;101600.52;5088442;56;1140991;-74
2021/06/03 20:21:13;;;;;;;13.55;5.83;;;;;;;20.94;44.45;101603.30;5092813;56;1143422;-76
2021/06/03 20:26:19;;;;;;;12.78;4.97;;;;;;;20.88;44.93;101601.27;5090105;56;1141185;-74
2021/06/03 20:31:26;;;;;;;10.28;4.03;;;;;;;20.81;45.25;101606.08;5087390;56;1141106;-75
2021/06/03 20:36:32;;;;;;;10.93;3.08;;;;;;;20.74;45.69;101605.05;5090942;56;1141018;-75
2021/06/03 20:41:38;;;;;;;5.03;3.50;;;;;;;20.60;45.88;101606.47;5090576;56;1141006;-76
2021/06/03 20:46:46;;;;;;;31.38;4.22;;;;;;;20.49;46.42;101606.20;5087762;56;1138925;-75
2021/06/03 20:51:53;;;;;;;23.84;4.24;;;;;;;20.38;46.68;101607.81;5099194;56;1141021;-75
2021/06/03 20:56:59;;;;;;;95.37;10.50;;;;;;;20.26;46.66;101620.63;5069319;56;1141128;-73
2021/06/03 21:02:05;;;;;;;17.50;4.75;;;;;;;20.12;46.99;101611.77;5084027;55;1143410;-76
2021/06/03 21:07:12;;;;;;;11.90;4.62;;;;;;;19.92;47.25;101609.73;5083890;56;1141231;-76
2021/06/03 21:12:17;;;;;;;5.78;3.98;;;;;;;19.76;47.13;101604.20;5084082;56;1140837;-76
2021/06/03 21:17:24;;;;;;;7.35;3.92;;;;;;;19.63;47.31;101611.28;5084203;56;1138487;-76
2021/06/03 21:22:31;;;;;;;7.08;3.80;;;;;;;19.58;47.56;101612.72;5084230;56;1138752;-76
2021/06/03 21:27:39;;;;;;;4.60;4.12;;;;;;;19.44;47.65;101617.22;5083688;56;1138492;-75
2021/06/03 21:32:46;;;;;;;26.15;11.45;;;;;;;19.21;48.13;101616.30;5084049;56;1138693;-74
2021/06/03 21:37:54;;;;;;;34.04;14.90;;;;;;;19.10;48.86;101619.64;5089042;56;1142730;-77
2021/06/03 21:43:00;;;;;;;16.52;5.97;;;;;;;19.01;49.38;101609.31;5069125;56;1142674;-75
2021/06/03 21:48:08;;;;;;;12.85;5.30;;;;;;;18.94;49.72;101610.38;5083960;55;1140690;-77
2021/06/03 21:53:16;;;;;;;5.87;4.08;;;;;;;18.85;49.83;101604.57;5083163;55;1140617;-77
2021/06/03 21:58:23;;;;;;;6.83;3.90;;;;;;;18.73;49.79;101611.11;5084391;56;1138512;-73
2021/06/03 22:03:30;;;;;;;4.37;3.92;;;;;;;18.59;50.09;101607.55;5084046;56;1138401;-76
2021/06/03 22:08:37;;;;;;;9.05;4.00;;;;;;;18.45;50.20;101609.30;5084252;56;1138451;-73
2021/06/03 22:13:45;;;;;;;7.83;4.65;;;;;;;18.38;50.65;101603.66;5083105;55;1138501;-77
2021/06/03 22:18:53;;;;;;;16.96;8.84;;;;;;;18.34;50.98;101610.28;5083936;56;1138398;-74
2021/06/03 22:24:02;;;;;;;14.32;7.08;;;;;;;18.28;51.15;101606.86;5083930;55;1140703;-75
2021/06/03 22:29:10;;;;;;;10.28;5.25;;;;;;;18.21;51.09;101615.09;5083892;56;1140699;-74
2021/06/03 22:34:18;;;;;;;7.13;4.60;;;;;;;18.12;50.97;101611.94;5083666;57;1140514;-76
2021/06/03 22:39:24;;;;;;;10.17;4.30;;;;;;;18.08;50.90;101614.05;5083914;56;1138383;-74
2021/06/03 22:44:31;;;;;;;6.10;4.10;;;;;;;18.01;50.94;101620.11;5083851;56;1140641;-74
2021/06/03 22:49:37;;;;;;;8.77;5.33;;;;;;;17.80;50.82;101613.53;5083843;56;1138354;-76
2021/06/03 22:54:43;;;;;;;6.27;4.73;;;;;;;17.65;51.52;101613.58;5083781;56;1138789;-74
2021/06/03 22:59:49;;;;;;;5.40;4.07;;;;;;;17.55;51.76;101604.18;5083975;56;1138436;-74
2021/06/03 23:04:55;;;;;;;11.07;5.90;;;;;;;17.47;51.82;101601.33;5084204;55;1138985;-75
2021/06/03 23:10:03;;;;;;;8.35;5.58;;;;;;;17.38;52.12;101615.05;5083997;57;1141255;-75
2021/06/03 23:15:11;;;;;;;8.08;4.45;;;;;;;17.34;52.43;101610.09;5083895;56;1138949;-75
2021/06/03 23:20:18;;;;;;;6.63;3.93;;;;;;;17.19;52.30;101614.48;5083846;57;1138829;-73
2021/06/03 23:25:24;;;;;;;8.27;4.47;;;;;;;16.95;52.35;101608.62;5083952;56;1139090;-75
2021/06/03 23:30:30;;;;;;;9.43;4.60;;;;;;;16.90;52.39;101611.33;5083733;56;1139092;-75